createdAt,value
2022-10-04T00:03:47.368Z,4.05
2022-10-04T00:08:54.509Z,4.03
2022-10-04T00:13:59.447Z,3.92
2022-10-04T00:19:26.733Z,3.90
2022-10-04T00:24:31.366Z,3.03
2022-10-04T00:29:38.889Z,3.55
2022-10-04T00:39:59.561Z,3.47
2022-10-04T00:45:04.669Z,2.60
2022-10-04T00:50:24.121Z,2.88
2022-10-04T00:55:35.458Z,2.22
2022-10-04T01:00:38.711Z,2.00
2022-10-04T01:05:44.973Z,2.55
2022-10-04T01:11:13.457Z,3.28
2022-10-04T01:16:20.487Z,3.25
2022-10-04T01:21:32.232Z,2.40
2022-10-04T01:26:36.409Z,2.35
2022-10-04T01:31:45.480Z,2.35
2022-10-04T01:36:49.993Z,2.40
2022-10-04T01:42:03.445Z,1.90
2022-10-04T01:47:09.993Z,2.50
2022-10-04T01:52:18.478Z,2.13
2022-10-04T01:57:25.458Z,2.22
2022-10-04T02:02:46.708Z,1.70
2022-10-04T02:07:49.826Z,1.80
2022-10-04T02:12:54.757Z,1.55
2022-10-04T02:17:57.463Z,1.77
2022-10-04T02:23:03.331Z,1.75
2022-10-04T02:28:10.991Z,2.38
2022-10-04T02:33:13.477Z,1.73
2022-10-04T02:38:23.926Z,2.25
2022-10-04T02:43:29.266Z,2.38
2022-10-04T02:48:54.437Z,2.28
2022-10-04T02:54:12.647Z,2.60
2022-10-04T02:59:17.002Z,2.15
2022-10-04T03:04:21.423Z,2.90
2022-10-04T03:09:29.474Z,2.33
2022-10-04T03:14:32.641Z,2.05
2022-10-04T03:19:37.334Z,2.00
2022-10-04T03:24:54.494Z,2.50
2022-10-04T03:29:59.512Z,2.80
2022-10-04T03:35:05.108Z,2.75
2022-10-04T03:40:10.238Z,3.22
2022-10-04T03:45:15.879Z,2.92
2022-10-04T03:50:27.602Z,3.00
2022-10-04T03:55:35.370Z,4.05
2022-10-04T04:00:43.064Z,3.50
2022-10-04T04:05:53.042Z,4.13
2022-10-04T04:10:57.156Z,4.18
2022-10-04T04:16:01.842Z,4.13
2022-10-04T04:21:06.314Z,5.47
2022-10-04T04:26:35.907Z,6.35
2022-10-04T04:31:44.884Z,7.20
2022-10-04T04:36:47.407Z,5.60
2022-10-04T04:41:50.921Z,4.95
2022-10-04T04:47:00.554Z,5.63
2022-10-04T04:52:03.838Z,4.60
2022-10-04T04:57:06.403Z,3.38
2022-10-04T05:02:30.815Z,2.92
2022-10-04T05:07:33.193Z,4.35
2022-10-04T05:12:35.484Z,3.50
2022-10-04T05:17:37.804Z,3.80
2022-10-04T05:22:42.390Z,2.97
2022-10-04T05:27:45.390Z,3.17
2022-10-04T05:33:06.752Z,3.50
2022-10-04T05:38:34.023Z,4.05
2022-10-04T05:43:38.681Z,2.63
2022-10-04T05:48:43.327Z,4.22
2022-10-04T05:53:46.573Z,4.30
2022-10-04T05:59:10.473Z,4.07
2022-10-04T06:04:57.532Z,3.78
2022-10-04T06:10:12.656Z,4.25
2022-10-04T06:15:46.028Z,3.38
2022-10-04T06:21:13.352Z,3.95
2022-10-04T06:26:25.660Z,2.60
2022-10-04T06:31:36.910Z,3.60
2022-10-04T06:36:57.325Z,3.47
2022-10-04T06:42:08.449Z,3.03
2022-10-04T06:47:24.657Z,2.70
2022-10-04T06:52:30.992Z,2.92
2022-10-04T06:58:08.702Z,3.17
2022-10-04T07:03:15.491Z,2.95
2022-10-04T07:08:36.817Z,2.73
2022-10-04T07:13:49.286Z,2.63
2022-10-04T07:19:29.170Z,2.55
2022-10-04T07:24:51.476Z,2.08
2022-10-04T07:29:55.987Z,1.77
2022-10-04T07:35:00.401Z,1.20
2022-10-04T07:40:18.021Z,1.80
2022-10-04T07:45:26.805Z,1.10
2022-10-04T07:50:38.847Z,1.33
2022-10-04T07:56:00.050Z,1.65
2022-10-04T08:01:10.256Z,1.30
2022-10-04T08:06:31.185Z,1.15
2022-10-04T08:12:33.133Z,1.15
2022-10-04T08:18:00.060Z,1.60
2022-10-04T08:23:07.441Z,1.50
2022-10-04T08:28:43.211Z,1.33
2022-10-04T08:34:23.605Z,1.20
2022-10-04T08:39:44.158Z,1.23
2022-10-04T08:45:02.210Z,1.58
2022-10-04T08:50:38.101Z,1.73
2022-10-04T08:55:53.816Z,1.05
2022-10-04T09:01:07.218Z,1.38
2022-10-04T09:06:28.083Z,1.27
2022-10-04T09:11:55.340Z,1.42
2022-10-04T09:17:22.461Z,1.63
2022-10-04T09:22:47.218Z,0.83
2022-10-04T09:28:03.555Z,1.40
2022-10-04T09:33:43.068Z,1.40
2022-10-04T09:39:25.579Z,1.15
2022-10-04T09:44:34.009Z,1.23
2022-10-04T09:49:45.460Z,1.23
2022-10-04T09:55:22.866Z,1.20
2022-10-04T10:00:36.063Z,1.00
2022-10-04T10:06:01.865Z,1.20
2022-10-04T10:11:41.153Z,1.40
2022-10-04T10:17:00.222Z,1.40
2022-10-04T10:22:09.350Z,1.38
2022-10-04T10:27:26.281Z,1.13
2022-10-04T10:32:40.843Z,0.97
2022-10-04T10:38:02.307Z,1.20
2022-10-04T10:43:33.604Z,0.95
2022-10-04T10:48:53.355Z,1.35
2022-10-04T10:54:16.175Z,1.10
2022-10-04T10:59:50.634Z,1.00
2022-10-04T11:05:30.336Z,1.10
2022-10-04T11:11:00.008Z,1.00
2022-10-04T11:16:24.146Z,0.90
2022-10-04T11:21:45.217Z,0.77
2022-10-04T11:27:06.053Z,1.05
2022-10-04T11:32:31.417Z,0.82
2022-10-04T11:37:57.720Z,0.90
2022-10-04T11:43:04.853Z,0.60
2022-10-04T11:48:20.462Z,0.75
2022-10-04T11:53:33.668Z,0.90
2022-10-04T11:59:11.227Z,0.98
2022-10-04T12:04:44.854Z,0.80
2022-10-04T12:10:01.116Z,0.60
2022-10-04T12:15:41.294Z,0.70
2022-10-04T12:21:08.076Z,0.60
2022-10-04T12:26:19.303Z,0.63
2022-10-04T12:31:29.188Z,0.68
2022-10-04T12:36:42.086Z,0.90
2022-10-04T12:41:47.285Z,0.70
2022-10-04T12:46:55.354Z,0.90
2022-10-04T12:52:16.355Z,1.00
2022-10-04T12:57:27.709Z,0.95
2022-10-04T13:03:03.850Z,0.70
2022-10-04T13:08:27.753Z,0.60
2022-10-04T13:13:33.278Z,0.70
2022-10-04T13:18:50.573Z,0.70
2022-10-04T13:24:11.652Z,0.40
2022-10-04T13:29:33.204Z,0.60
2022-10-04T13:34:50.423Z,0.47
2022-10-04T13:39:55.515Z,0.65
2022-10-04T13:45:06.746Z,0.50
2022-10-04T13:50:27.378Z,0.60
2022-10-04T13:56:40.181Z,0.63
2022-10-04T14:02:03.866Z,0.52
2022-10-04T14:07:32.534Z,0.68
2022-10-04T14:12:49.891Z,0.40
2022-10-04T14:18:10.524Z,0.60
2022-10-04T14:23:35.243Z,0.85
2022-10-04T14:29:09.881Z,0.77
2022-10-04T14:34:12.150Z,0.93
2022-10-04T14:39:41.784Z,0.70
2022-10-04T14:45:01.496Z,1.10
2022-10-04T14:50:23.962Z,0.60
2022-10-04T14:55:27.168Z,1.10
2022-10-04T15:01:04.672Z,1.38
2022-10-04T15:06:13.814Z,1.20
2022-10-04T15:11:37.136Z,1.40
2022-10-04T15:16:42.828Z,1.88
2022-10-04T15:21:48.153Z,1.52
2022-10-04T15:27:27.381Z,1.40
2022-10-04T15:32:43.326Z,0.98
2022-10-04T15:38:20.136Z,1.10
2022-10-04T15:43:29.709Z,1.77
2022-10-04T15:48:59.722Z,3.53
2022-10-04T15:54:30.177Z,4.05
2022-10-04T15:59:47.532Z,9.10
2022-10-04T16:04:49.804Z,3.28
2022-10-04T16:10:45.873Z,2.92
2022-10-04T16:16:16.989Z,2.85
2022-10-04T16:21:35.900Z,3.20
2022-10-04T16:27:08.915Z,2.50
2022-10-04T16:32:26.042Z,7.47
2022-10-04T16:37:36.992Z,10.87
2022-10-04T16:42:45.191Z,14.48
2022-10-04T16:48:05.811Z,18.10
2022-10-04T16:53:32.144Z,20.10
2022-10-04T16:58:38.708Z,18.83
2022-10-04T17:03:48.850Z,20.83
2022-10-04T17:09:08.748Z,17.40
2022-10-04T17:14:33.341Z,12.80
2022-10-04T17:19:52.749Z,8.00
2022-10-04T17:25:19.471Z,6.13
2022-10-04T17:30:24.119Z,6.65
2022-10-04T17:35:48.077Z,7.93
2022-10-04T17:40:56.016Z,6.93
2022-10-04T17:46:16.261Z,9.80
2022-10-04T17:51:39.879Z,10.32
2022-10-04T17:57:09.505Z,15.73
2022-10-04T18:02:18.440Z,18.30
2022-10-04T18:07:37.890Z,11.88
2022-10-04T18:12:56.204Z,9.57
2022-10-04T18:18:12.538Z,9.00
2022-10-04T18:23:35.781Z,7.45
2022-10-04T18:28:38.380Z,9.73
2022-10-04T18:33:40.703Z,10.70
2022-10-04T18:39:14.460Z,12.20
2022-10-04T18:44:18.148Z,16.13
2022-10-04T18:49:51.474Z,15.93
2022-10-04T18:54:57.071Z,12.77
2022-10-04T19:00:30.550Z,11.75
2022-10-04T19:05:33.064Z,9.10
2022-10-04T19:10:40.670Z,8.52
2022-10-04T19:16:05.443Z,7.60
2022-10-04T19:21:19.161Z,7.47
2022-10-04T19:26:33.489Z,7.38
2022-10-04T19:32:02.951Z,7.35
2022-10-04T19:37:26.901Z,8.23
2022-10-04T19:42:38.575Z,7.63
2022-10-04T19:47:51.575Z,8.57
2022-10-04T19:52:59.639Z,7.68
2022-10-04T19:58:13.173Z,8.10
2022-10-04T20:03:15.510Z,7.85
2022-10-04T20:09:00.728Z,7.22
2022-10-04T20:14:07.789Z,13.20
2022-10-04T20:19:19.087Z,10.10
2022-10-04T20:24:36.394Z,8.63
2022-10-04T20:29:38.740Z,6.35
2022-10-04T20:34:42.088Z,6.85
2022-10-04T20:39:44.381Z,9.93
2022-10-04T20:44:55.597Z,6.93
2022-10-04T20:50:00.065Z,6.60
2022-10-04T20:55:03.019Z,5.78
2022-10-04T21:00:06.018Z,5.80
2022-10-04T21:05:23.602Z,5.45
2022-10-04T21:10:28.674Z,6.80
2022-10-04T21:15:31.017Z,6.22
2022-10-04T21:20:51.664Z,7.78
2022-10-04T21:26:23.245Z,7.00
2022-10-04T21:31:25.985Z,7.43
2022-10-04T21:36:28.358Z,7.45
2022-10-04T21:41:30.681Z,7.15
2022-10-04T21:46:32.968Z,7.97
2022-10-04T21:51:40.141Z,7.55
2022-10-04T21:56:42.452Z,7.28
2022-10-04T22:01:44.795Z,6.50
2022-10-04T22:06:48.509Z,7.45
2022-10-04T22:11:51.113Z,6.80
2022-10-04T22:16:53.485Z,9.82
2022-10-04T22:21:55.967Z,10.07
2022-10-04T22:26:58.338Z,9.35
2022-10-04T22:32:00.683Z,12.10
2022-10-04T22:37:03.337Z,12.68
2022-10-04T22:42:05.874Z,13.05
2022-10-04T22:47:12.652Z,10.88
2022-10-04T22:52:19.276Z,11.87
2022-10-04T22:57:21.830Z,10.27
2022-10-04T23:02:29.630Z,13.30
2022-10-04T23:07:37.425Z,13.23
2022-10-04T23:12:41.043Z,11.05
2022-10-04T23:17:43.388Z,11.60
2022-10-04T23:22:50.334Z,10.98
2022-10-04T23:27:52.934Z,8.52
2022-10-04T23:32:59.094Z,12.50
2022-10-04T23:38:07.105Z,9.88
2022-10-04T23:43:15.485Z,9.90
2022-10-04T23:48:22.635Z,8.80
2022-10-04T23:53:29.141Z,8.25
2022-10-04T23:58:35.167Z,10.82
